sensor_id;sensor_type;location;lat;lon;timestamp;temperature;humidity
63094;DHT22;49183;51.380;0.098;2022-11-03T00:04:09;9.60;80.00
63094;DHT22;49183;51.380;0.098;2022-11-03T00:08:39;9.60;80.10
63094;DHT22;49183;51.380;0.098;2022-11-03T00:21:22;9.50;80.30
63094;DHT22;49183;51.380;0.098;2022-11-03T00:24:22;9.40;80.60
63094;DHT22;49183;51.380;0.098;2022-11-03T00:28:22;9.50;80.60
63094;DHT22;49183;51.380;0.098;2022-11-03T00:31:26;9.40;80.60
63094;DHT22;49183;51.380;0.098;2022-11-03T00:35:23;9.40;80.70
63094;DHT22;49183;51.380;0.098;2022-11-03T00:38:25;9.40;80.70
63094;DHT22;49183;51.380;0.098;2022-11-03T00:51:16;9.40;81.00
63094;DHT22;49183;51.380;0.098;2022-11-03T00:58:51;9.40;81.20
63094;DHT22;49183;51.380;0.098;2022-11-03T01:16:51;9.30;81.90
63094;DHT22;49183;51.380;0.098;2022-11-03T01:19:37;9.20;82.00
63094;DHT22;49183;51.380;0.098;2022-11-03T01:22:36;9.20;82.20
63094;DHT22;49183;51.380;0.098;2022-11-03T01:35:13;9.10;82.50
63094;DHT22;49183;51.380;0.098;2022-11-03T01:37:54;9.10;82.60
63094;DHT22;49183;51.380;0.098;2022-11-03T01:40:30;9.00;82.70
63094;DHT22;49183;51.380;0.098;2022-11-03T01:43:13;9.00;82.80
63094;DHT22;49183;51.380;0.098;2022-11-03T01:45:41;9.00;82.90
63094;DHT22;49183;51.380;0.098;2022-11-03T01:48:08;9.00;83.00
63094;DHT22;49183;51.380;0.098;2022-11-03T01:50:36;8.90;83.10
63094;DHT22;49183;51.380;0.098;2022-11-03T01:53:03;8.90;83.20
63094;DHT22;49183;51.380;0.098;2022-11-03T01:55:32;8.90;83.30
63094;DHT22;49183;51.380;0.098;2022-11-03T01:58:03;8.90;83.30
63094;DHT22;49183;51.380;0.098;2022-11-03T02:00:32;8.90;83.50
63094;DHT22;49183;51.380;0.098;2022-11-03T02:03:00;8.90;83.50
63094;DHT22;49183;51.380;0.098;2022-11-03T02:05:27;8.90;83.50
63094;DHT22;49183;51.380;0.098;2022-11-03T02:08:08;8.80;83.50
63094;DHT22;49183;51.380;0.098;2022-11-03T02:10:38;8.80;83.50
63094;DHT22;49183;51.380;0.098;2022-11-03T02:13:08;8.80;83.60
63094;DHT22;49183;51.380;0.098;2022-11-03T02:15:37;8.80;83.70
63094;DHT22;49183;51.380;0.098;2022-11-03T02:18:05;8.80;83.80
63094;DHT22;49183;51.380;0.098;2022-11-03T02:20:33;8.80;83.80
63094;DHT22;49183;51.380;0.098;2022-11-03T02:25:47;8.80;83.90
63094;DHT22;49183;51.380;0.098;2022-11-03T02:28:17;8.80;83.90
63094;DHT22;49183;51.380;0.098;2022-11-03T02:33:20;8.80;83.90
63094;DHT22;49183;51.380;0.098;2022-11-03T02:35:55;8.80;84.00
63094;DHT22;49183;51.380;0.098;2022-11-03T02:38:25;8.80;84.10
63094;DHT22;49183;51.380;0.098;2022-11-03T02:40:54;8.70;84.20
63094;DHT22;49183;51.380;0.098;2022-11-03T02:43:23;8.70;84.30
63094;DHT22;49183;51.380;0.098;2022-11-03T02:45:51;8.60;84.40
63094;DHT22;49183;51.380;0.098;2022-11-03T02:48:19;8.60;84.50
63094;DHT22;49183;51.380;0.098;2022-11-03T02:50:46;8.60;84.60
63094;DHT22;49183;51.380;0.098;2022-11-03T02:53:15;8.60;84.60
63094;DHT22;49183;51.380;0.098;2022-11-03T02:56:03;8.60;84.70
63094;DHT22;49183;51.380;0.098;2022-11-03T02:59:15;8.60;84.70
63094;DHT22;49183;51.380;0.098;2022-11-03T03:03:54;8.50;84.80
63094;DHT22;49183;51.380;0.098;2022-11-03T03:06:28;8.50;84.90
63094;DHT22;49183;51.380;0.098;2022-11-03T03:08:58;8.50;85.00
63094;DHT22;49183;51.380;0.098;2022-11-03T03:11:26;8.40;85.00
63094;DHT22;49183;51.380;0.098;2022-11-03T03:14:09;8.40;85.10
63094;DHT22;49183;51.380;0.098;2022-11-03T03:16:49;8.40;85.20
63094;DHT22;49183;51.380;0.098;2022-11-03T03:19:20;8.40;85.30
63094;DHT22;49183;51.380;0.098;2022-11-03T03:21:50;8.30;85.40
63094;DHT22;49183;51.380;0.098;2022-11-03T03:24:43;8.30;85.40
63094;DHT22;49183;51.380;0.098;2022-11-03T03:27:07;8.30;85.50
63094;DHT22;49183;51.380;0.098;2022-11-03T03:29:39;8.20;85.60
63094;DHT22;49183;51.380;0.098;2022-11-03T03:32:07;8.20;85.60
63094;DHT22;49183;51.380;0.098;2022-11-03T03:34:36;8.20;85.70
63094;DHT22;49183;51.380;0.098;2022-11-03T03:37:05;8.20;85.80
63094;DHT22;49183;51.380;0.098;2022-11-03T03:39:34;8.10;85.90
63094;DHT22;49183;51.380;0.098;2022-11-03T03:42:02;8.10;85.90
63094;DHT22;49183;51.380;0.098;2022-11-03T03:44:31;8.20;85.90
63094;DHT22;49183;51.380;0.098;2022-11-03T03:46:59;8.20;86.00
63094;DHT22;49183;51.380;0.098;2022-11-03T03:49:27;8.10;86.00
63094;DHT22;49183;51.380;0.098;2022-11-03T03:51:55;8.10;86.10
63094;DHT22;49183;51.380;0.098;2022-11-03T03:54:22;8.10;86.10
63094;DHT22;49183;51.380;0.098;2022-11-03T03:56:55;8.10;86.10
63094;DHT22;49183;51.380;0.098;2022-11-03T03:59:25;8.10;86.10
63094;DHT22;49183;51.380;0.098;2022-11-03T04:01:52;8.00;86.20
63094;DHT22;49183;51.380;0.098;2022-11-03T04:04:20;8.10;86.30
63094;DHT22;49183;51.380;0.098;2022-11-03T04:06:47;8.00;86.30
63094;DHT22;49183;51.380;0.098;2022-11-03T04:09:14;8.00;86.40
63094;DHT22;49183;51.380;0.098;2022-11-03T04:11:42;7.90;86.40
63094;DHT22;49183;51.380;0.098;2022-11-03T04:14:28;8.00;86.50
63094;DHT22;49183;51.380;0.098;2022-11-03T04:17:18;7.90;86.50
63094;DHT22;49183;51.380;0.098;2022-11-03T04:20:05;8.00;86.60
63094;DHT22;49183;51.380;0.098;2022-11-03T04:22:54;7.90;86.50
63094;DHT22;49183;51.380;0.098;2022-11-03T04:25:21;7.90;86.60
63094;DHT22;49183;51.380;0.098;2022-11-03T04:27:49;7.90;86.70
63094;DHT22;49183;51.380;0.098;2022-11-03T04:30:18;7.90;86.70
63094;DHT22;49183;51.380;0.098;2022-11-03T04:32:46;7.90;86.70
63094;DHT22;49183;51.380;0.098;2022-11-03T04:35:15;7.90;86.80
63094;DHT22;49183;51.380;0.098;2022-11-03T04:37:44;7.90;86.80
63094;DHT22;49183;51.380;0.098;2022-11-03T04:40:14;7.90;86.90
63094;DHT22;49183;51.380;0.098;2022-11-03T04:42:43;7.90;86.90
63094;DHT22;49183;51.380;0.098;2022-11-03T04:45:12;7.90;86.90
63094;DHT22;49183;51.380;0.098;2022-11-03T04:47:40;7.90;87.00
63094;DHT22;49183;51.380;0.098;2022-11-03T04:50:12;8.00;87.00
63094;DHT22;49183;51.380;0.098;2022-11-03T04:52:41;8.00;86.90
63094;DHT22;49183;51.380;0.098;2022-11-03T04:55:10;8.00;86.90
63094;DHT22;49183;51.380;0.098;2022-11-03T04:57:40;8.00;87.00
63094;DHT22;49183;51.380;0.098;2022-11-03T05:00:12;8.00;87.00
63094;DHT22;49183;51.380;0.098;2022-11-03T05:02:40;8.00;87.10
63094;DHT22;49183;51.380;0.098;2022-11-03T05:05:13;8.00;87.10
63094;DHT22;49183;51.380;0.098;2022-11-03T05:07:41;8.00;87.10
63094;DHT22;49183;51.380;0.098;2022-11-03T05:10:12;8.00;87.10
63094;DHT22;49183;51.380;0.098;2022-11-03T05:12:41;8.00;87.10
63094;DHT22;49183;51.380;0.098;2022-11-03T05:17:57;8.00;87.20
63094;DHT22;49183;51.380;0.098;2022-11-03T05:20:45;8.00;87.30
63094;DHT22;49183;51.380;0.098;2022-11-03T05:23:14;8.00;87.30
63094;DHT22;49183;51.380;0.098;2022-11-03T05:25:46;8.00;87.40
63094;DHT22;49183;51.380;0.098;2022-11-03T05:28:30;8.00;87.40
63094;DHT22;49183;51.380;0.098;2022-11-03T05:30:59;8.00;87.40
63094;DHT22;49183;51.380;0.098;2022-11-03T05:33:27;8.00;87.50
63094;DHT22;49183;51.380;0.098;2022-11-03T05:35:55;7.90;87.60
63094;DHT22;49183;51.380;0.098;2022-11-03T05:38:24;8.00;87.60
63094;DHT22;49183;51.380;0.098;2022-11-03T05:40:52;7.90;87.70
63094;DHT22;49183;51.380;0.098;2022-11-03T05:43:20;7.90;87.70
63094;DHT22;49183;51.380;0.098;2022-11-03T05:45:48;7.90;87.80
63094;DHT22;49183;51.380;0.098;2022-11-03T05:48:29;7.90;87.90
63094;DHT22;49183;51.380;0.098;2022-11-03T05:50:58;7.90;87.90
63094;DHT22;49183;51.380;0.098;2022-11-03T05:53:30;7.90;88.00
63094;DHT22;49183;51.380;0.098;2022-11-03T05:55:59;7.90;88.00
63094;DHT22;49183;51.380;0.098;2022-11-03T05:58:29;7.80;88.10
63094;DHT22;49183;51.380;0.098;2022-11-03T06:00:58;7.80;88.20
63094;DHT22;49183;51.380;0.098;2022-11-03T06:03:27;7.80;88.40
63094;DHT22;49183;51.380;0.098;2022-11-03T06:05:55;7.80;88.40
63094;DHT22;49183;51.380;0.098;2022-11-03T06:08:24;7.90;88.50
63094;DHT22;49183;51.380;0.098;2022-11-03T06:10:53;7.90;88.60
63094;DHT22;49183;51.380;0.098;2022-11-03T06:16:02;7.90;88.80
63094;DHT22;49183;51.380;0.098;2022-11-03T06:18:31;7.90;88.90
63094;DHT22;49183;51.380;0.098;2022-11-03T06:21:10;7.90;89.00
63094;DHT22;49183;51.380;0.098;2022-11-03T06:23:39;8.00;89.00
63094;DHT22;49183;51.380;0.098;2022-11-03T06:26:20;8.00;89.10
63094;DHT22;49183;51.380;0.098;2022-11-03T06:28:48;8.00;89.30
63094;DHT22;49183;51.380;0.098;2022-11-03T06:31:20;8.00;89.40
63094;DHT22;49183;51.380;0.098;2022-11-03T06:33:50;8.00;89.50
63094;DHT22;49183;51.380;0.098;2022-11-03T06:36:25;8.00;89.60
63094;DHT22;49183;51.380;0.098;2022-11-03T06:38:54;8.00;89.60
63094;DHT22;49183;51.380;0.098;2022-11-03T06:41:23;8.00;89.80
63094;DHT22;49183;51.380;0.098;2022-11-03T06:43:51;8.10;89.90
63094;DHT22;49183;51.380;0.098;2022-11-03T06:46:22;8.10;90.00
63094;DHT22;49183;51.380;0.098;2022-11-03T06:48:51;8.10;90.10
63094;DHT22;49183;51.380;0.098;2022-11-03T06:51:20;8.10;90.20
63094;DHT22;49183;51.380;0.098;2022-11-03T06:53:48;8.10;90.30
63094;DHT22;49183;51.380;0.098;2022-11-03T06:56:20;8.00;90.30
63094;DHT22;49183;51.380;0.098;2022-11-03T06:58:48;8.00;90.40
63094;DHT22;49183;51.380;0.098;2022-11-03T07:01:18;8.00;90.60
63094;DHT22;49183;51.380;0.098;2022-11-03T07:03:47;8.00;90.60
63094;DHT22;49183;51.380;0.098;2022-11-03T07:06:22;8.00;90.70
63094;DHT22;49183;51.380;0.098;2022-11-03T07:08:54;8.00;90.70
63094;DHT22;49183;51.380;0.098;2022-11-03T07:11:23;8.00;90.80
63094;DHT22;49183;51.380;0.098;2022-11-03T07:13:51;8.00;90.80
63094;DHT22;49183;51.380;0.098;2022-11-03T07:18:50;8.00;90.90
63094;DHT22;49183;51.380;0.098;2022-11-03T07:21:32;7.90;90.80
63094;DHT22;49183;51.380;0.098;2022-11-03T07:24:02;8.00;90.90
63094;DHT22;49183;51.380;0.098;2022-11-03T07:26:31;7.90;90.90
63094;DHT22;49183;51.380;0.098;2022-11-03T07:28:59;8.00;90.90
63094;DHT22;49183;51.380;0.098;2022-11-03T07:31:27;8.00;90.90
63094;DHT22;49183;51.380;0.098;2022-11-03T07:33:55;8.00;90.90
63094;DHT22;49183;51.380;0.098;2022-11-03T07:36:24;8.00;90.90
63094;DHT22;49183;51.380;0.098;2022-11-03T07:38:53;8.00;90.90
63094;DHT22;49183;51.380;0.098;2022-11-03T07:41:23;8.00;90.90
63094;DHT22;49183;51.380;0.098;2022-11-03T07:43:59;7.90;90.90
63094;DHT22;49183;51.380;0.098;2022-11-03T07:46:27;7.90;90.90
63094;DHT22;49183;51.380;0.098;2022-11-03T07:48:58;7.90;91.00
63094;DHT22;49183;51.380;0.098;2022-11-03T07:56:44;8.00;91.00
63094;DHT22;49183;51.380;0.098;2022-11-03T07:59:14;8.00;91.00
63094;DHT22;49183;51.380;0.098;2022-11-03T08:01:43;8.00;91.00
63094;DHT22;49183;51.380;0.098;2022-11-03T08:04:12;8.00;91.00
63094;DHT22;49183;51.380;0.098;2022-11-03T08:06:43;8.00;91.00
63094;DHT22;49183;51.380;0.098;2022-11-03T08:09:10;8.10;91.00
63094;DHT22;49183;51.380;0.098;2022-11-03T08:11:37;8.00;91.00
63094;DHT22;49183;51.380;0.098;2022-11-03T08:14:05;8.00;91.00
63094;DHT22;49183;51.380;0.098;2022-11-03T08:16:32;8.00;91.00
63094;DHT22;49183;51.380;0.098;2022-11-03T08:19:00;8.10;91.10
63094;DHT22;49183;51.380;0.098;2022-11-03T08:21:27;8.10;91.00
63094;DHT22;49183;51.380;0.098;2022-11-03T08:23:55;8.00;91.00
63094;DHT22;49183;51.380;0.098;2022-11-03T08:26:22;8.10;91.10
63094;DHT22;49183;51.380;0.098;2022-11-03T08:28:49;8.10;91.10
63094;DHT22;49183;51.380;0.098;2022-11-03T08:31:18;8.10;91.10
63094;DHT22;49183;51.380;0.098;2022-11-03T08:33:45;8.10;91.10
63094;DHT22;49183;51.380;0.098;2022-11-03T08:36:13;8.10;91.10
63094;DHT22;49183;51.380;0.098;2022-11-03T08:38:40;8.10;91.10
63094;DHT22;49183;51.380;0.098;2022-11-03T08:41:08;8.20;91.10
63094;DHT22;49183;51.380;0.098;2022-11-03T08:43:35;8.10;91.10
63094;DHT22;49183;51.380;0.098;2022-11-03T08:46:02;8.10;91.10
63094;DHT22;49183;51.380;0.098;2022-11-03T08:48:43;8.10;91.20
63094;DHT22;49183;51.380;0.098;2022-11-03T08:51:11;8.10;91.30
63094;DHT22;49183;51.380;0.098;2022-11-03T08:53:40;8.10;91.30
63094;DHT22;49183;51.380;0.098;2022-11-03T08:56:12;8.10;91.30
63094;DHT22;49183;51.380;0.098;2022-11-03T08:58:46;8.20;91.30
63094;DHT22;49183;51.380;0.098;2022-11-03T09:01:14;8.20;91.40
63094;DHT22;49183;51.380;0.098;2022-11-03T09:03:41;8.20;91.40
63094;DHT22;49183;51.380;0.098;2022-11-03T09:06:09;8.20;91.40
63094;DHT22;49183;51.380;0.098;2022-11-03T09:08:37;8.10;91.40
63094;DHT22;49183;51.380;0.098;2022-11-03T09:11:24;8.10;91.40
63094;DHT22;49183;51.380;0.098;2022-11-03T09:13:52;8.10;91.50
63094;DHT22;49183;51.380;0.098;2022-11-03T09:16:19;8.10;91.50
63094;DHT22;49183;51.380;0.098;2022-11-03T09:18:46;8.10;91.60
63094;DHT22;49183;51.380;0.098;2022-11-03T09:21:14;8.10;91.70
63094;DHT22;49183;51.380;0.098;2022-11-03T09:23:41;8.20;91.70
63094;DHT22;49183;51.380;0.098;2022-11-03T09:26:09;8.20;91.70
63094;DHT22;49183;51.380;0.098;2022-11-03T09:28:36;8.30;91.80
63094;DHT22;49183;51.380;0.098;2022-11-03T09:31:03;8.30;91.80
63094;DHT22;49183;51.380;0.098;2022-11-03T09:33:31;8.40;91.80
63094;DHT22;49183;51.380;0.098;2022-11-03T09:35:58;8.40;91.80
63094;DHT22;49183;51.380;0.098;2022-11-03T09:38:25;8.60;91.80
63094;DHT22;49183;51.380;0.098;2022-11-03T09:40:53;8.70;91.70
63094;DHT22;49183;51.380;0.098;2022-11-03T09:43:21;8.80;91.70
63094;DHT22;49183;51.380;0.098;2022-11-03T09:45:48;9.00;91.70
63094;DHT22;49183;51.380;0.098;2022-11-03T09:48:15;9.20;91.70
63094;DHT22;49183;51.380;0.098;2022-11-03T09:50:43;9.30;91.60
63094;DHT22;49183;51.380;0.098;2022-11-03T09:53:11;9.50;91.50
63094;DHT22;49183;51.380;0.098;2022-11-03T09:55:38;9.70;91.40
63094;DHT22;49183;51.380;0.098;2022-11-03T09:58:11;9.80;91.20
63094;DHT22;49183;51.380;0.098;2022-11-03T10:00:40;9.90;90.80
63094;DHT22;49183;51.380;0.098;2022-11-03T10:03:17;9.90;90.60
63094;DHT22;49183;51.380;0.098;2022-11-03T10:05:45;9.80;90.50
63094;DHT22;49183;51.380;0.098;2022-11-03T10:10:49;9.80;90.50
63094;DHT22;49183;51.380;0.098;2022-11-03T10:13:20;9.80;90.50
63094;DHT22;49183;51.380;0.098;2022-11-03T10:15:49;9.80;90.60
63094;DHT22;49183;51.380;0.098;2022-11-03T10:18:17;9.90;90.60
63094;DHT22;49183;51.380;0.098;2022-11-03T10:20:45;9.90;90.50
63094;DHT22;49183;51.380;0.098;2022-11-03T10:23:12;10.00;90.50
63094;DHT22;49183;51.380;0.098;2022-11-03T10:25:40;10.10;90.40
63094;DHT22;49183;51.380;0.098;2022-11-03T10:28:21;10.20;90.30
63094;DHT22;49183;51.380;0.098;2022-11-03T10:30:59;10.30;90.20
63094;DHT22;49183;51.380;0.098;2022-11-03T10:33:52;10.30;90.10
63094;DHT22;49183;51.380;0.098;2022-11-03T10:36:22;10.40;90.00
63094;DHT22;49183;51.380;0.098;2022-11-03T10:38:49;10.40;89.80
63094;DHT22;49183;51.380;0.098;2022-11-03T10:41:18;10.50;89.70
63094;DHT22;49183;51.380;0.098;2022-11-03T10:46:54;10.60;89.50
63094;DHT22;49183;51.380;0.098;2022-11-03T10:49:22;10.60;89.40
63094;DHT22;49183;51.380;0.098;2022-11-03T10:51:53;10.60;89.20
63094;DHT22;49183;51.380;0.098;2022-11-03T10:54:21;10.60;88.90
63094;DHT22;49183;51.380;0.098;2022-11-03T10:56:49;10.60;88.60
63094;DHT22;49183;51.380;0.098;2022-11-03T10:59:19;10.70;88.10
63094;DHT22;49183;51.380;0.098;2022-11-03T11:01:46;10.70;87.40
63094;DHT22;49183;51.380;0.098;2022-11-03T11:04:18;10.70;87.00
63094;DHT22;49183;51.380;0.098;2022-11-03T11:06:46;10.70;86.70
63094;DHT22;49183;51.380;0.098;2022-11-03T11:09:16;10.80;86.70
63094;DHT22;49183;51.380;0.098;2022-11-03T11:16:54;11.00;86.20
63094;DHT22;49183;51.380;0.098;2022-11-03T11:19:23;11.10;85.80
63094;DHT22;49183;51.380;0.098;2022-11-03T11:29:54;11.30;84.10
63094;DHT22;49183;51.380;0.098;2022-11-03T11:35:08;11.40;83.30
63094;DHT22;49183;51.380;0.098;2022-11-03T11:37:36;11.50;83.30
63094;DHT22;49183;51.380;0.098;2022-11-03T11:40:11;11.50;83.20
63094;DHT22;49183;51.380;0.098;2022-11-03T11:48:17;11.70;81.80
63094;DHT22;49183;51.380;0.098;2022-11-03T11:50:47;11.70;81.30
63094;DHT22;49183;51.380;0.098;2022-11-03T11:53:19;11.80;80.90
63094;DHT22;49183;51.380;0.098;2022-11-03T11:55:52;11.80;80.80
63094;DHT22;49183;51.380;0.098;2022-11-03T12:00:56;11.80;80.60
63094;DHT22;49183;51.380;0.098;2022-11-03T12:03:25;11.80;80.30
63094;DHT22;49183;51.380;0.098;2022-11-03T12:05:53;11.80;80.00
63094;DHT22;49183;51.380;0.098;2022-11-03T12:08:24;11.80;79.70
63094;DHT22;49183;51.380;0.098;2022-11-03T12:10:53;11.80;78.80
63094;DHT22;49183;51.380;0.098;2022-11-03T12:16:07;11.80;79.00
63094;DHT22;49183;51.380;0.098;2022-11-03T12:18:42;11.80;79.30
63094;DHT22;49183;51.380;0.098;2022-11-03T12:24:23;11.80;79.30
63094;DHT22;49183;51.380;0.098;2022-11-03T12:26:50;11.80;79.50
63094;DHT22;49183;51.380;0.098;2022-11-03T12:29:17;11.90;79.50
63094;DHT22;49183;51.380;0.098;2022-11-03T12:31:45;11.90;79.60
63094;DHT22;49183;51.380;0.098;2022-11-03T12:34:13;11.90;79.30
63094;DHT22;49183;51.380;0.098;2022-11-03T12:36:41;11.90;79.20
63094;DHT22;49183;51.380;0.098;2022-11-03T12:39:09;12.00;79.20
